Terminal Aerodrome Forecast
Issued by NWS Lake Charles, LA

Home | Current Version | Previous Version | Text Only | Print | Product List | Glossary On
Versions: 1 2 3 4 5 6 7 8 9 10 11 12 13 14 15 16 17 18 19 20 21 22 23 24 25
000
FTUS44 KLCH 260707 AAA
TAFARA
TAF AMD
KARA 260707Z 2607/2706 VRB03KT 1/2SM FG VV009
      TEMPO 2609/2613 1/4SM FG VV001
     FM261400 VRB04KT 3SM BR BKN170
     FM261600 11007KT P6SM BKN150
     FM270000 16008KT P6SM BKN080 BKN150=

USA.gov is the U.S. government's official web portal to all federal, state and local government web resources and services.